Darra — 2992QD — position and weather

sailwx.info

Track history (hours):
 
Tides and Currents Weather Stations Pressure Air Temp Water Temp Dewpoint Dewpoint Depression Visibility Wind Speed Wind Dir Waves Ship Positions

Darra

Last reported at 2018-Feb-14 20:47 UTC. Time now 2018-Feb-19 14:22 UTC.
Position S 27°12' E 153°18'.

Length 79 m.

Type: Cargo ship. MMSI: 503012060.

Date/timePositionNaut miles runAvg speedWind from/ knotsBaromVisibWave heightAir tempDewpointWater temp
2018-Feb-14 20:47S 27°12' E 153°18'5 6.4
2018-Feb-14 20:02S 27°08' E 153°19'0 6.3
2018-Feb-14 20:00S 27°08' E 153°19'4 2.7
2018-Feb-14 18:23S 27°04' E 153°17'0 0.0
2018-Feb-14 17:57S 27°04' E 153°17'0 0.0
2018-Feb-14 17:27S 27°04' E 153°17'0 0.0
2018-Feb-14 16:57S 27°04' E 153°17'6 0.2
2018-Feb-13 12:33S 27°09' E 153°20'0 7.8
2018-Feb-13 12:30S 27°09' E 153°19'3 6.6
2018-Feb-13 12:00S 27°12' E 153°17'3 6.1
2018-Feb-13 11:30S 27°14' E 153°15'8 6.4
2018-Feb-13 10:14S 27°21' E 153°11'  
Track history (hours):
 
Tides and Currents Weather Stations Pressure Air Temp Water Temp Dewpoint Dewpoint Depression Visibility Wind Speed Wind Dir Waves Ship Positions

Darra

Last reported at 2018-Feb-14 20:47 UTC. Time now 2018-Feb-19 14:22 UTC.
Position S 27°12' E 153°18'.

Length 79 m.

Type: Cargo ship. MMSI: 503012060.

Date/timePositionNaut miles runAvg speedWind from/ knotsBaromVisibWave heightAir tempDewpointWater temp
2018-Feb-14 20:47S 27°12' E 153°18'5 6.4
2018-Feb-14 20:02S 27°08' E 153°19'0 6.3
2018-Feb-14 20:00S 27°08' E 153°19'4 2.7
2018-Feb-14 18:23S 27°04' E 153°17'0 0.0
2018-Feb-14 17:57S 27°04' E 153°17'0 0.0
2018-Feb-14 17:27S 27°04' E 153°17'0 0.0
2018-Feb-14 16:57S 27°04' E 153°17'6 0.2
2018-Feb-13 12:33S 27°09' E 153°20'0 7.8
2018-Feb-13 12:30S 27°09' E 153°19'3 6.6
2018-Feb-13 12:00S 27°12' E 153°17'3 6.1
2018-Feb-13 11:30S 27°14' E 153°15'8 6.4
2018-Feb-13 10:14S 27°21' E 153°11'  

Dump ship's entire track history